Skip Navigation LinksHome page > Weather > Current weather Skip Navigation Links

Current Weather

Indira Gandhi Intl Apt, New Delhi, India

For information only: do not use for flight planning or navigation.
Latest weather
Observation time Wednesday, September 17, 2014 8:30 PM IST
Local time Wednesday, September 17, 2014 9:02 PM IST
Flight conditions Instrument Meteorological Conditions
Winds
Wind direction Northwest (320°)
Wind speed 6 mph
Visibility 2.5 mi.
Present weather haze
Sky condition
Ceiling unlimited
Temperature 88°F
Dewpoint 72°F
Altimeter 29.62 in.Hg
Derived measurements
Relative humidity 59%
Heat index 94°F
Density altitude 3295 ft.
Remarks
No significant changes expected in the next two hours.
METAR VIDP 171500Z 32005KT 4000 HZ NSC 31/22 Q1003 NOSIG

Settings

Location code

InnerDrive.Weather 4.0.5372.0 Release CLR 4.0.30319.34014
Copyright ©2014 Inner Drive Technology. All rights reserved. Portions Copyright ©1986-2014 David Braverman.

Find weather

Site navigation


Skip Navigation Links

Place info

Page info

PayPal - The safer, easier way to pay online!

Return home.

Copyright ©2014 Inner Drive Technology. Purveyors of fine, hand-crafted computer software. Page printed 2014-09-17T15:32:32 UTC.